Time;durP1;ratioP1;P1;durP2;ratioP2;P2;SDS_P1;SDS_P2;PMS_P1;PMS_P2;Temp;Humidity;BMP_temperature;BMP_pressure;BME280_temperature;BME280_humidity;BME280_pressure;Samples;Min_cycle;Max_cycle;Signal;HPM_P1;HPM_P2
2023/09/12 00:00:11;;;;;;;13.23;8.77;;;23.00;77.10;;;;;;5054596;28;20033;-68
2023/09/12 00:02:37;;;;;;;13.13;8.98;;;22.90;77.20;;;;;;5054303;28;20083;-68
2023/09/12 00:05:04;;;;;;;10.65;9.13;;;23.00;77.30;;;;;;5053782;28;20045;-68
2023/09/12 00:07:30;;;;;;;13.77;9.40;;;22.90;77.50;;;;;;5054436;28;20490;-69
2023/09/12 00:09:55;;;;;;;17.23;9.15;;;22.90;77.90;;;;;;5053707;28;20123;-69
2023/09/12 00:12:24;;;;;;;12.35;8.75;;;22.80;78.10;;;;;;5053922;28;20074;-68
2023/09/12 00:14:50;;;;;;;16.13;8.93;;;22.80;78.10;;;;;;5053959;28;20032;-69
2023/09/12 00:17:16;;;;;;;11.75;8.50;;;22.80;78.10;;;;;;5053224;28;20029;-68
2023/09/12 00:19:43;;;;;;;11.80;8.50;;;22.80;77.90;;;;;;5054050;28;20029;-69
2023/09/12 00:22:08;;;;;;;15.48;8.25;;;22.80;78.10;;;;;;5053530;28;20447;-69
2023/09/12 00:24:34;;;;;;;11.98;8.45;;;22.80;78.10;;;;;;5054146;28;20029;-69
2023/09/12 00:26:59;;;;;;;15.98;8.93;;;22.80;77.90;;;;;;5053253;28;20025;-68
2023/09/12 00:29:25;;;;;;;22.13;8.65;;;22.80;78.00;;;;;;5053754;28;20037;-69
2023/09/12 00:31:51;;;;;;;15.32;8.20;;;22.80;78.00;;;;;;5053370;28;20031;-70
2023/09/12 00:34:17;;;;;;;16.60;8.30;;;22.70;78.30;;;;;;5053691;28;20363;-69
2023/09/12 00:36:43;;;;;;;18.58;7.57;;;22.70;78.60;;;;;;5053820;28;20025;-69
2023/09/12 00:39:08;;;;;;;15.00;8.02;;;22.70;78.60;;;;;;5052940;28;20083;-70
2023/09/12 00:41:34;;;;;;;15.57;8.25;;;22.60;78.50;;;;;;5053397;28;20031;-69
2023/09/12 00:44:00;;;;;;;13.68;9.07;;;22.60;78.80;;;;;;5053100;28;20385;-69
2023/09/12 00:46:27;;;;;;;16.50;8.35;;;22.60;78.90;;;;;;5053584;28;20377;-67
2023/09/12 00:48:54;;;;;;;17.05;8.27;;;22.60;79.10;;;;;;5053022;28;20032;-70
2023/09/12 00:51:22;;;;;;;13.52;7.97;;;22.50;78.90;;;;;;5053174;28;20029;-69
2023/09/12 00:53:48;;;;;;;13.77;7.93;;;22.50;79.10;;;;;;5053565;28;20465;-69
2023/09/12 00:56:14;;;;;;;15.50;7.93;;;22.50;79.30;;;;;;5053192;28;20045;-69
2023/09/12 00:58:40;;;;;;;17.05;7.45;;;22.50;79.30;;;;;;5053199;28;20516;-69
2023/09/12 01:01:06;;;;;;;14.18;7.40;;;22.50;79.30;;;;;;5052862;28;20024;-69
2023/09/12 01:03:32;;;;;;;13.68;7.45;;;22.50;79.40;;;;;;5052999;28;20108;-68
2023/09/12 01:05:59;;;;;;;8.82;7.03;;;22.40;79.10;;;;;;5052254;28;20466;-68
2023/09/12 01:08:25;;;;;;;17.17;7.30;;;22.40;79.60;;;;;;5043912;28;20485;-68
2023/09/12 01:10:54;;;;;;;14.77;7.60;;;22.40;79.70;;;;;;5034950;28;20029;-69
2023/09/12 01:13:19;;;;;;;16.45;7.30;;;22.40;79.60;;;;;;5032812;28;20394;-68
2023/09/12 01:15:45;;;;;;;15.73;7.80;;;22.40;79.80;;;;;;5033115;28;20026;-68
2023/09/12 01:18:11;;;;;;;15.95;7.70;;;22.30;80.00;;;;;;5032602;28;20029;-67
2023/09/12 01:20:41;;;;;;;15.85;7.95;;;22.30;80.10;;;;;;5033130;28;20032;-68
2023/09/12 01:23:22;;;;;;;20.38;8.32;;;22.30;80.30;;;;;;5032354;28;20048;-69
2023/09/12 01:26:14;;;;;;;13.15;8.50;;;22.30;80.80;;;;;;5015138;28;20179;-68
2023/09/12 01:28:42;;;;;;;13.25;6.72;;;22.30;80.60;;;;;;5032779;28;20028;-68
2023/09/12 01:31:09;;;;;;;14.98;8.13;;;22.20;80.60;;;;;;5032352;28;20120;-69
2023/09/12 01:33:35;;;;;;;18.83;8.10;;;22.20;80.70;;;;;;5032804;28;20079;-68
2023/09/12 01:36:00;;;;;;;13.13;7.65;;;22.20;81.40;;;;;;5032664;28;20108;-68
2023/09/12 01:38:27;;;;;;;18.13;8.05;;;22.10;81.40;;;;;;5032740;28;20029;-69
2023/09/12 01:40:54;;;;;;;16.52;8.18;;;22.10;81.40;;;;;;5034837;28;20038;-69
2023/09/12 01:43:23;;;;;;;15.48;7.45;;;22.10;81.10;;;;;;5032440;28;20029;-69
2023/09/12 01:45:53;;;;;;;14.30;8.02;;;22.10;81.10;;;;;;5032756;28;20030;-70
2023/09/12 01:48:21;;;;;;;16.25;8.32;;;22.10;80.80;;;;;;5032722;28;20042;-69
2023/09/12 01:50:47;;;;;;;9.20;7.30;;;22.00;81.00;;;;;;5032702;28;20057;-69
2023/09/12 01:53:14;;;;;;;15.40;7.75;;;22.10;81.30;;;;;;5032066;28;20958;-69
2023/09/12 01:55:41;;;;;;;14.20;7.45;;;22.00;81.50;;;;;;5032546;28;20413;-69
2023/09/12 01:58:08;;;;;;;12.27;7.47;;;22.00;81.50;;;;;;5014661;28;20351;-69
2023/09/12 02:00:34;;;;;;;15.45;7.70;;;22.00;81.70;;;;;;5014909;28;20389;-69
2023/09/12 02:02:59;;;;;;;12.05;7.50;;;22.00;81.60;;;;;;5032238;28;20087;-69
2023/09/12 02:05:26;;;;;;;11.88;7.10;;;22.00;81.70;;;;;;5032317;28;20030;-69
2023/09/12 02:07:52;;;;;;;11.65;7.35;;;22.00;81.70;;;;;;5032814;28;20347;-68
2023/09/12 02:10:18;;;;;;;12.57;7.10;;;22.00;81.50;;;;;;5031907;28;20040;-68
2023/09/12 02:12:43;;;;;;;13.90;7.10;;;22.00;81.50;;;;;;5032543;28;20036;-68
2023/09/12 02:15:09;;;;;;;14.60;7.70;;;22.00;81.50;;;;;;5031807;28;20109;-68
2023/09/12 02:17:35;;;;;;;13.73;7.53;;;21.90;81.40;;;;;;5032413;28;20086;-69
2023/09/12 02:20:01;;;;;;;10.88;8.32;;;22.00;81.70;;;;;;5032147;28;20033;-68
2023/09/12 02:22:26;;;;;;;13.43;8.05;;;22.00;81.70;;;;;;5032607;28;20033;-67
2023/09/12 02:24:52;;;;;;;17.73;7.72;;;22.00;81.60;;;;;;5032060;28;20036;-68
2023/09/12 02:27:17;;;;;;;17.85;7.70;;;22.00;81.80;;;;;;5031721;28;20061;-67
2023/09/12 02:29:43;;;;;;;10.43;7.30;;;22.00;82.00;;;;;;5031990;28;20042;-68
2023/09/12 02:32:09;;;;;;;12.13;7.75;;;22.00;82.00;;;;;;5031977;28;20021;-68
2023/09/12 02:34:35;;;;;;;9.55;7.95;;;21.90;82.10;;;;;;5032589;28;20035;-68
2023/09/12 02:37:01;;;;;;;13.68;7.47;;;21.90;82.60;;;;;;5031915;28;20514;-68
2023/09/12 02:39:26;;;;;;;13.75;8.70;;;21.80;82.70;;;;;;5033678;28;20033;-69
2023/09/12 02:41:52;;;;;;;10.27;8.30;;;21.90;82.60;;;;;;5018280;28;20029;-68
2023/09/12 02:44:17;;;;;;;11.90;8.20;;;21.80;82.70;;;;;;5035579;28;20459;-69
2023/09/12 02:46:43;;;;;;;11.82;7.88;;;21.90;82.90;;;;;;5035572;28;20026;-69
2023/09/12 02:49:09;;;;;;;16.23;8.55;;;21.80;83.00;;;;;;5035419;28;20068;-69
2023/09/12 02:51:38;;;;;;;12.35;7.93;;;21.80;83.30;;;;;;5035519;28;20028;-69
2023/09/12 02:54:04;;;;;;;10.85;8.23;;;21.80;83.20;;;;;;5035703;28;20034;-69
2023/09/12 02:56:30;;;;;;;13.05;8.02;;;21.80;83.10;;;;;;5035727;28;20437;-69
2023/09/12 02:58:56;;;;;;;14.80;8.90;;;21.80;83.40;;;;;;5035687;28;20026;-69
2023/09/12 03:01:22;;;;;;;15.25;8.60;;;21.70;83.70;;;;;;5035317;28;20378;-69
2023/09/12 03:03:50;;;;;;;17.55;8.68;;;21.70;84.10;;;;;;5035580;28;20458;-69
2023/09/12 03:06:17;;;;;;;13.93;8.85;;;21.70;84.20;;;;;;5034886;28;20493;-69
2023/09/12 03:08:43;;;;;;;23.40;8.60;;;21.70;84.40;;;;;;5048660;28;20090;-70
2023/09/12 03:11:09;;;;;;;11.05;8.43;;;21.60;85.00;;;;;;5054947;28;20040;-69
2023/09/12 03:13:37;;;;;;;15.68;9.02;;;21.60;85.30;;;;;;5055267;28;20033;-68
2023/09/12 03:16:03;;;;;;;15.63;10.70;;;21.60;85.80;;;;;;5055225;28;20029;-69
2023/09/12 03:18:29;;;;;;;13.80;9.52;;;21.50;85.90;;;;;;5051799;28;20343;-68
2023/09/12 03:20:54;;;;;;;15.18;9.80;;;21.50;86.20;;;;;;5055221;28;20032;-68
2023/09/12 03:23:20;;;;;;;14.98;9.70;;;21.50;86.40;;;;;;5054473;28;20033;-68
2023/09/12 03:25:46;;;;;;;16.75;9.85;;;21.50;86.70;;;;;;5037366;28;20029;-68
2023/09/12 03:28:12;;;;;;;13.02;9.02;;;21.40;87.10;;;;;;5036913;28;20032;-68
2023/09/12 03:30:38;;;;;;;15.38;9.52;;;21.40;87.10;;;;;;5054675;28;20393;-68
2023/09/12 03:33:05;;;;;;;12.63;9.25;;;21.40;87.20;;;;;;5054607;28;20037;-68
2023/09/12 03:35:32;;;;;;;16.67;9.82;;;21.30;87.50;;;;;;5054947;28;20036;-68
2023/09/12 03:37:58;;;;;;;13.80;9.38;;;21.30;87.80;;;;;;5054557;28;20033;-69
2023/09/12 03:40:24;;;;;;;14.77;9.40;;;21.30;87.60;;;;;;5054403;28;20406;-69
2023/09/12 03:42:49;;;;;;;14.98;9.23;;;21.30;87.80;;;;;;5054376;28;20056;-69
2023/09/12 03:45:15;;;;;;;10.90;8.32;;;21.30;87.80;;;;;;5054099;28;20070;-69
2023/09/12 03:47:40;;;;;;;12.80;9.52;;;21.30;87.80;;;;;;5054400;28;20430;-68
2023/09/12 03:50:06;;;;;;;18.17;9.75;;;21.20;88.00;;;;;;5050665;28;20442;-68
2023/09/12 03:52:32;;;;;;;15.23;10.35;;;21.30;88.40;;;;;;5054588;28;20037;-68
2023/09/12 03:55:00;;;;;;;17.17;9.80;;;21.30;88.20;;;;;;5054275;28;20059;-68
2023/09/12 03:57:26;;;;;;;14.43;10.48;;;21.20;88.90;;;;;;5054128;28;20080;-68
2023/09/12 03:59:52;;;;;;;15.60;10.43;;;21.20;88.80;;;;;;5054735;28;20461;-69
2023/09/12 04:02:18;;;;;;;15.75;10.02;;;21.20;89.50;;;;;;5036130;28;20060;-69
2023/09/12 04:04:44;;;;;;;17.83;9.93;;;21.20;89.90;;;;;;5054513;28;20137;-68
2023/09/12 04:07:09;;;;;;;13.40;10.23;;;21.20;89.80;;;;;;5053895;28;20021;-68
2023/09/12 04:09:35;;;;;;;16.25;10.07;;;21.20;89.50;;;;;;5054185;28;20434;-69
2023/09/12 04:12:01;;;;;;;19.38;10.90;;;21.20;89.70;;;;;;5053891;28;20091;-68
2023/09/12 04:14:27;;;;;;;20.85;10.38;;;21.20;89.90;;;;;;5053697;28;20047;-69
2023/09/12 04:16:52;;;;;;;18.70;10.40;;;21.10;89.90;;;;;;5054366;28;20033;-68
2023/09/12 04:19:18;;;;;;;18.13;10.85;;;21.10;90.00;;;;;;5053499;28;20029;-69
2023/09/12 04:21:43;;;;;;;21.15;10.73;;;21.10;90.00;;;;;;5054061;28;20037;-70
2023/09/12 04:24:09;;;;;;;16.58;10.95;;;21.10;90.00;;;;;;5053586;28;20032;-69
2023/09/12 04:26:35;;;;;;;15.13;10.63;;;21.10;90.10;;;;;;5053618;28;20059;-69
2023/09/12 04:29:00;;;;;;;18.75;10.43;;;21.00;90.00;;;;;;5053799;28;20025;-68
2023/09/12 04:31:26;;;;;;;19.92;10.43;;;21.00;90.50;;;;;;5053480;28;20402;-69
2023/09/12 04:33:52;;;;;;;16.63;10.45;;;21.00;90.40;;;;;;5054012;28;20103;-69
2023/09/12 04:36:18;;;;;;;18.73;10.15;;;21.00;90.50;;;;;;5053330;28;20064;-69
2023/09/12 04:38:44;;;;;;;17.25;10.88;;;21.00;90.40;;;;;;5053750;28;20037;-69
2023/09/12 04:41:15;;;;;;;17.05;10.98;;;21.00;90.50;;;;;;5053035;28;20090;-69
2023/09/12 04:43:41;;;;;;;24.08;11.93;;;21.00;90.50;;;;;;5053582;28;20036;-69
2023/09/12 04:46:06;;;;;;;21.10;10.80;;;21.00;90.60;;;;;;5053096;28;20037;-70
2023/09/12 04:48:32;;;;;;;19.00;11.25;;;21.00;90.60;;;;;;5053319;28;20025;-69
2023/09/12 04:50:58;;;;;;;18.27;11.93;;;21.00;90.50;;;;;;5053510;28;20033;-69
2023/09/12 04:53:24;;;;;;;15.20;10.93;;;21.00;90.40;;;;;;5053060;28;20029;-69
2023/09/12 04:55:53;;;;;;;18.77;11.02;;;21.00;90.50;;;;;;5053247;28;20466;-69
2023/09/12 04:58:18;;;;;;;18.08;11.70;;;21.00;90.50;;;;;;5052937;28;20029;-69
2023/09/12 05:00:45;;;;;;;19.40;11.27;;;21.10;90.50;;;;;;5019181;28;20025;-69
2023/09/12 05:03:10;;;;;;;17.92;11.07;;;21.10;90.50;;;;;;5052384;28;20101;-70
2023/09/12 05:05:36;;;;;;;18.42;12.20;;;21.10;90.60;;;;;;5053239;28;20064;-69
2023/09/12 05:08:02;;;;;;;19.42;12.25;;;21.10;90.70;;;;;;5033768;28;20056;-69
2023/09/12 05:10:27;;;;;;;19.38;12.05;;;21.20;90.70;;;;;;5052648;28;20033;-69
2023/09/12 05:12:53;;;;;;;18.75;11.93;;;21.20;90.80;;;;;;5053023;28;20420;-69
2023/09/12 05:15:19;;;;;;;16.63;11.18;;;21.10;90.80;;;;;;5049195;28;20027;-69
2023/09/12 05:17:44;;;;;;;20.88;12.73;;;21.10;91.00;;;;;;5052654;28;20082;-68
2023/09/12 05:20:10;;;;;;;22.77;11.70;;;21.10;91.10;;;;;;5052654;28;20036;-70
2023/09/12 05:22:36;;;;;;;22.40;12.30;;;21.10;91.30;;;;;;5053062;28;20025;-69
2023/09/12 05:25:01;;;;;;;15.73;12.07;;;21.20;91.30;;;;;;5052678;28;20104;-70
2023/09/12 05:27:27;;;;;;;16.65;11.88;;;21.20;91.30;;;;;;5052426;28;20021;-69
2023/09/12 05:29:52;;;;;;;20.23;11.18;;;21.20;91.20;;;;;;5052794;28;20045;-69
2023/09/12 05:32:18;;;;;;;17.67;12.15;;;21.30;91.10;;;;;;5052302;28;20112;-69
2023/09/12 05:34:45;;;;;;;19.23;13.15;;;21.30;91.10;;;;;;5052761;28;20471;-69
2023/09/12 05:37:11;;;;;;;20.60;12.18;;;21.30;90.90;;;;;;5052291;28;20025;-70
2023/09/12 05:39:36;;;;;;;19.15;13.52;;;21.20;91.00;;;;;;5052349;28;20036;-69
2023/09/12 05:42:02;;;;;;;20.38;12.85;;;21.30;91.10;;;;;;5052715;28;20130;-69
2023/09/12 05:44:28;;;;;;;25.80;13.23;;;21.30;91.00;;;;;;5051932;28;20021;-68
2023/09/12 05:46:53;;;;;;;23.15;12.88;;;21.40;90.90;;;;;;5034888;28;20362;-68
2023/09/12 05:49:19;;;;;;;15.00;11.70;;;21.40;90.80;;;;;;5034248;28;20465;-69
2023/09/12 05:51:45;;;;;;;19.42;13.07;;;21.40;90.70;;;;;;5052504;28;20100;-68
2023/09/12 05:54:13;;;;;;;16.98;12.73;;;21.40;90.80;;;;;;5051970;28;20087;-70
2023/09/12 05:56:39;;;;;;;17.75;12.93;;;21.40;90.70;;;;;;5037992;28;20050;-68
2023/09/12 05:59:05;;;;;;;21.05;13.48;;;21.50;90.80;;;;;;5032649;28;20032;-68
2023/09/12 06:01:31;;;;;;;20.83;14.45;;;21.50;90.80;;;;;;5032502;28;20280;-69
2023/09/12 06:03:56;;;;;;;15.88;14.18;;;21.50;90.60;;;;;;5032601;28;20035;-68
2023/09/12 06:06:22;;;;;;;24.60;13.90;;;21.60;90.80;;;;;;5032262;28;20026;-69
2023/09/12 06:08:48;;;;;;;19.90;12.63;;;21.70;90.70;;;;;;5032532;28;20057;-68
2023/09/12 06:11:14;;;;;;;18.13;13.02;;;21.70;90.50;;;;;;5032158;28;20042;-69
2023/09/12 06:13:39;;;;;;;20.33;13.45;;;21.80;90.30;;;;;;5032468;28;20037;-69
2023/09/12 06:16:06;;;;;;;15.43;11.63;;;21.80;90.20;;;;;;5036684;28;20040;-70
2023/09/12 06:18:32;;;;;;;18.88;12.73;;;21.90;90.10;;;;;;5035771;28;20033;-69
2023/09/12 06:20:59;;;;;;;20.70;13.40;;;22.00;90.10;;;;;;5036157;28;20029;-69
2023/09/12 06:23:24;;;;;;;19.70;13.25;;;22.00;89.60;;;;;;5035895;28;20036;-69
2023/09/12 06:25:50;;;;;;;24.52;13.85;;;22.00;89.60;;;;;;5036216;28;20452;-68
2023/09/12 06:28:26;;;;;;;21.05;13.15;;;22.10;89.40;;;;;;5035560;28;20112;-68
2023/09/12 06:30:51;;;;;;;22.17;15.73;;;22.20;89.60;;;;;;5036428;28;20040;-68
2023/09/12 06:33:17;;;;;;;18.55;13.88;;;22.20;88.90;;;;;;5035776;28;20021;-68
2023/09/12 06:35:43;;;;;;;24.83;14.43;;;22.30;87.90;;;;;;5035868;28;20036;-67
2023/09/12 06:38:08;;;;;;;22.17;13.55;;;22.40;87.60;;;;;;5036014;28;20022;-69
2023/09/12 06:40:34;;;;;;;21.80;13.07;;;22.50;87.10;;;;;;5035564;28;20111;-70
2023/09/12 06:42:59;;;;;;;20.50;14.15;;;22.60;88.00;;;;;;5035655;28;20048;-69
2023/09/12 06:45:25;;;;;;;18.63;12.02;;;22.80;85.90;;;;;;5035572;28;20033;-69
2023/09/12 06:47:50;;;;;;;22.52;13.70;;;23.10;85.20;;;;;;5035744;28;20134;-70
2023/09/12 06:50:16;;;;;;;19.35;12.63;;;23.30;84.00;;;;;;5035569;28;20037;-70
2023/09/12 06:52:42;;;;;;;15.40;11.68;;;23.50;83.30;;;;;;5035726;28;20397;-69
2023/09/12 06:55:07;;;;;;;21.63;12.23;;;23.80;80.80;;;;;;5035535;28;20025;-69
2023/09/12 06:57:33;;;;;;;17.88;11.18;;;24.20;79.50;;;;;;5048024;28;20049;-69
2023/09/12 06:59:59;;;;;;;14.23;11.50;;;24.50;78.10;;;;;;5055297;28;20561;-69
2023/09/12 07:02:26;;;;;;;19.70;11.50;;;24.80;76.60;;;;;;5055011;28;20104;-68
2023/09/12 07:04:52;;;;;;;32.38;12.35;;;25.20;75.10;;;;;;5055656;28;20120;-70
2023/09/12 07:07:17;;;;;;;20.88;11.38;;;26.00;72.40;;;;;;5074774;28;20419;-70
2023/09/12 07:09:43;;;;;;;19.00;10.73;;;26.80;68.80;;;;;;5075351;28;20044;-68
2023/09/12 07:12:09;;;;;;;16.90;9.70;;;27.50;66.50;;;;;;5075246;28;20035;-69
2023/09/12 07:14:37;;;;;;;20.85;10.43;;;28.50;64.70;;;;;;5074879;28;20021;-70
2023/09/12 07:17:04;;;;;;;20.73;10.82;;;29.10;61.60;;;;;;5075481;28;20036;-69
2023/09/12 07:19:29;;;;;;;17.00;10.30;;;29.70;59.40;;;;;;5071443;28;20119;-70
2023/09/12 07:21:55;;;;;;;15.65;9.70;;;29.80;58.80;;;;;;5075300;28;20524;-69
2023/09/12 07:24:26;;;;;;;15.23;9.40;;;30.30;57.50;;;;;;5074699;28;20025;-70
2023/09/12 07:26:51;;;;;;;;;;;30.00;56.50;;;;;;5075207;28;20378;-69
2023/09/12 07:29:17;;;;;;;15.05;9.70;;;30.60;56.90;;;;;;5074598;28;19912;-70
2023/09/12 07:31:43;;;;;;;20.17;9.80;;;31.30;55.10;;;;;;5074704;28;20016;-69
2023/09/12 07:34:09;;;;;;;13.90;9.27;;;31.90;53.20;;;;;;5075054;28;20025;-69
2023/09/12 07:36:35;;;;;;;17.10;9.45;;;32.40;52.10;;;;;;5074531;28;20368;-70
2023/09/12 07:39:00;;;;;;;18.92;10.25;;;32.60;51.30;;;;;;5074897;28;20029;-68
2023/09/12 07:41:26;;;;;;;14.70;8.27;;;33.00;49.70;;;;;;5074291;28;20025;-69
2023/09/12 07:43:51;;;;;;;15.10;8.23;;;33.50;49.80;;;;;;5074545;28;20029;-69
2023/09/12 07:46:17;;;;;;;9.35;7.57;;;34.10;47.90;;;;;;5074785;28;20020;-70
2023/09/12 07:48:43;;;;;;;14.85;7.60;;;34.30;47.20;;;;;;5074252;28;20246;-70
2023/09/12 07:51:17;;;;;;;11.88;8.05;;;34.80;46.40;;;;;;5074521;28;20043;-68
2023/09/12 07:53:43;;;;;;;15.77;9.02;;;35.30;45.30;;;;;;5074135;28;20049;-69
2023/09/12 07:56:12;;;;;;;12.57;7.97;;;35.70;44.80;;;;;;5065792;28;20064;-69
2023/09/12 07:58:38;;;;;;;11.23;7.47;;;35.70;44.00;;;;;;5054633;28;20025;-70
2023/09/12 08:01:10;;;;;;;11.43;8.02;;;36.10;43.80;;;;;;5054491;28;20035;-69
2023/09/12 08:03:38;;;;;;;10.90;8.10;;;36.40;42.50;;;;;;5053997;28;20021;-69
2023/09/12 08:06:03;;;;;;;12.40;7.88;;;36.30;42.20;;;;;;5054195;28;20071;-69
2023/09/12 08:08:30;;;;;;;15.65;7.78;;;36.60;42.30;;;;;;5053854;28;20057;-69
2023/09/12 08:10:56;;;;;;;14.23;7.00;;;36.90;41.80;;;;;;5054156;28;20075;-69
2023/09/12 08:13:22;;;;;;;12.48;8.15;;;37.10;41.10;;;;;;5053759;28;20029;-70
2023/09/12 08:15:48;;;;;;;11.85;8.07;;;36.80;41.00;;;;;;5054124;28;20481;-70
2023/09/12 08:18:14;;;;;;;13.57;7.85;;;37.20;41.00;;;;;;5054069;28;20052;-69
2023/09/12 08:20:39;;;;;;;12.13;7.55;;;37.20;40.60;;;;;;5053659;28;20028;-69
2023/09/12 08:23:05;;;;;;;13.48;8.25;;;37.20;40.20;;;;;;5054134;28;20480;-69
2023/09/12 08:25:30;;;;;;;15.30;8.25;;;36.70;40.60;;;;;;5053314;28;20086;-69
2023/09/12 08:27:56;;;;;;;12.93;7.47;;;36.40;41.80;;;;;;5053843;28;20111;-68
2023/09/12 08:30:22;;;;;;;11.55;8.68;;;35.40;42.30;;;;;;5053581;28;20478;-71
2023/09/12 08:32:47;;;;;;;13.82;8.38;;;34.80;43.00;;;;;;5053931;28;20025;-69
2023/09/12 08:35:14;;;;;;;15.50;7.97;;;34.30;43.80;;;;;;5053799;28;20025;-68
2023/09/12 08:37:40;;;;;;;15.05;8.48;;;33.90;44.30;;;;;;5052572;28;20039;-70
2023/09/12 08:40:10;;;;;;;13.18;8.27;;;33.30;45.30;;;;;;5053606;28;20551;-70
2023/09/12 08:42:42;;;;;;;11.95;8.20;;;33.20;45.90;;;;;;5053155;28;20381;-70
2023/09/12 08:45:13;;;;;;;15.25;8.85;;;32.90;46.60;;;;;;5053221;28;20462;-69
2023/09/12 08:47:41;;;;;;;16.38;8.52;;;32.70;47.10;;;;;;5053082;28;20049;-69
2023/09/12 08:50:14;;;;;;;18.23;8.50;;;32.40;47.70;;;;;;5053494;28;20045;-69
2023/09/12 08:52:44;;;;;;;19.45;8.77;;;32.30;48.00;;;;;;5053123;28;20086;-68
2023/09/12 08:55:10;;;;;;;;;;;32.20;48.10;;;;;;5053830;28;20108;-69
2023/09/12 08:57:42;;;;;;;15.60;8.43;;;32.10;48.40;;;;;;5053365;28;19963;-69
2023/09/12 09:00:09;;;;;;;13.88;8.23;;;31.80;48.90;;;;;;5053760;28;20032;-69
2023/09/12 09:02:38;;;;;;;11.85;8.25;;;31.90;49.10;;;;;;5052849;28;20104;-70
2023/09/12 09:05:05;;;;;;;14.57;8.32;;;31.80;49.00;;;;;;5053450;28;20033;-68
2023/09/12 09:07:37;;;;;;;12.68;8.57;;;31.60;49.60;;;;;;5035224;28;20029;-70
2023/09/12 09:10:05;;;;;;;18.50;9.38;;;31.70;49.50;;;;;;5049681;28;20040;-69
2023/09/12 09:12:31;;;;;;;17.60;9.90;;;31.60;50.50;;;;;;5052681;28;20026;-69
2023/09/12 09:14:57;;;;;;;23.35;10.65;;;31.80;50.30;;;;;;5045779;28;20519;-69
2023/09/12 09:17:23;;;;;;;23.80;9.65;;;31.80;49.30;;;;;;5033090;28;20089;-69
2023/09/12 09:19:49;;;;;;;26.45;11.18;;;31.60;49.50;;;;;;5032968;28;20069;-69
2023/09/12 09:22:14;;;;;;;28.48;11.27;;;31.50;49.70;;;;;;5032686;28;20056;-69
2023/09/12 09:24:40;;;;;;;21.33;9.75;;;31.50;50.30;;;;;;5032699;28;20430;-69
2023/09/12 09:27:06;;;;;;;26.38;10.75;;;31.60;50.60;;;;;;5032598;28;20026;-69
2023/09/12 09:29:44;;;;;;;23.20;10.45;;;31.70;50.20;;;;;;5032682;28;20033;-70
2023/09/12 09:32:21;;;;;;;16.52;9.07;;;31.50;50.50;;;;;;5033007;28;20462;-69
2023/09/12 09:34:47;;;;;;;21.13;9.60;;;31.40;50.90;;;;;;5032399;28;20041;-69
2023/09/12 09:37:15;;;;;;;15.38;10.13;;;31.30;50.30;;;;;;5032545;28;20108;-68
2023/09/12 09:39:41;;;;;;;21.05;9.73;;;31.20;50.40;;;;;;5032079;28;20486;-69
2023/09/12 09:42:10;;;;;;;20.85;10.38;;;31.20;50.60;;;;;;5032676;28;20084;-69
2023/09/12 09:44:36;;;;;;;18.15;10.43;;;31.20;50.90;;;;;;5032209;28;20032;-69
2023/09/12 09:47:02;;;;;;;13.27;9.82;;;31.20;50.90;;;;;;5032376;28;20108;-68
2023/09/12 09:49:31;;;;;;;13.75;9.25;;;31.20;50.80;;;;;;5032368;28;20030;-71
2023/09/12 09:51:58;;;;;;;14.43;8.90;;;31.10;51.40;;;;;;5032491;28;20017;-69
2023/09/12 09:54:25;;;;;;;15.00;9.20;;;31.20;52.00;;;;;;5035102;28;20048;-68
2023/09/12 09:56:56;;;;;;;12.70;8.68;;;31.40;51.20;;;;;;5031756;28;20351;-69
2023/09/12 09:59:25;;;;;;;11.55;8.18;;;31.60;50.90;;;;;;5032108;28;20029;-69
2023/09/12 10:01:56;;;;;;;17.73;8.70;;;31.70;50.60;;;;;;5032017;28;20044;-69
2023/09/12 10:04:23;;;;;;;15.73;9.95;;;31.70;49.90;;;;;;5032536;28;20030;-69
2023/09/12 10:06:49;;;;;;;15.90;8.55;;;31.80;50.10;;;;;;5031984;28;20059;-69
2023/09/12 10:09:16;;;;;;;13.10;8.70;;;31.90;49.80;;;;;;5032114;28;20486;-69
2023/09/12 10:11:45;;;;;;;18.23;9.18;;;31.90;48.90;;;;;;5031869;28;20466;-70
2023/09/12 10:14:12;;;;;;;13.90;9.00;;;31.60;49.20;;;;;;5032277;28;20022;-69
2023/09/12 10:16:53;;;;;;;11.93;8.55;;;31.40;49.70;;;;;;5031564;28;20022;-70
2023/09/12 10:19:24;;;;;;;11.65;8.18;;;31.40;50.30;;;;;;5032271;28;20072;-70
2023/09/12 10:22:04;;;;;;;13.77;9.15;;;31.50;50.30;;;;;;5031818;28;20304;-69
2023/09/12 10:24:32;;;;;;;10.70;8.07;;;31.40;50.30;;;;;;5032097;28;20029;-71
2023/09/12 10:26:59;;;;;;;10.38;8.18;;;31.40;50.00;;;;;;5032134;28;20501;-70
2023/09/12 10:29:25;;;;;;;15.52;7.72;;;31.40;50.50;;;;;;5032104;28;20030;-69
2023/09/12 10:31:50;;;;;;;13.50;7.65;;;31.50;50.90;;;;;;5031857;28;20032;-70
2023/09/12 10:34:18;;;;;;;12.48;7.50;;;31.70;50.70;;;;;;5031802;28;20029;-68
2023/09/12 10:36:45;;;;;;;19.40;8.20;;;31.80;50.30;;;;;;5031675;28;20072;-69
2023/09/12 10:39:12;;;;;;;10.90;7.38;;;31.80;49.20;;;;;;5031866;28;20415;-69
2023/09/12 10:41:41;;;;;;;10.77;7.45;;;31.80;49.60;;;;;;5031433;28;20101;-69
2023/09/12 10:44:10;;;;;;;16.70;8.38;;;32.00;49.80;;;;;;5032120;28;20032;-68
2023/09/12 10:46:38;;;;;;;14.75;7.80;;;32.00;49.00;;;;;;5031781;28;20025;-69
2023/09/12 10:49:12;;;;;;;12.95;7.40;;;32.10;49.40;;;;;;5032008;28;20037;-69
2023/09/12 10:51:48;;;;;;;15.63;8.05;;;32.20;49.30;;;;;;5031605;28;20108;-69
2023/09/12 10:54:16;;;;;;;11.30;7.60;;;32.30;48.50;;;;;;5031775;28;20540;-68
2023/09/12 10:56:44;;;;;;;13.07;7.32;;;32.40;49.10;;;;;;5031485;28;20068;-69
2023/09/12 10:59:12;;;;;;;10.10;7.15;;;32.40;48.70;;;;;;5031635;28;20467;-69
2023/09/12 11:01:39;;;;;;;10.82;8.32;;;32.50;48.50;;;;;;5034661;28;20080;-70
2023/09/12 11:04:27;;;;;;;16.77;7.70;;;32.20;47.50;;;;;;5035413;28;20048;-69
2023/09/12 11:06:53;;;;;;;10.35;7.57;;;32.20;48.40;;;;;;5034536;28;20437;-69
2023/09/12 11:09:23;;;;;;;9.23;7.03;;;32.20;48.00;;;;;;5035107;28;20516;-69
2023/09/12 11:11:54;;;;;;;;;;;32.30;47.90;;;;;;5035268;28;20021;-69
2023/09/12 11:14:19;;;;;;;;;;;32.20;48.20;;;;;;5036165;28;19971;-69
2023/09/12 11:17:07;;;;;;;10.00;7.65;;;32.10;48.10;;;;;;5034673;28;19905;-69
2023/09/12 11:19:48;;;;;;;19.77;7.85;;;32.10;48.20;;;;;;5045094;28;20065;-70
2023/09/12 11:22:28;;;;;;;14.02;6.85;;;32.00;48.30;;;;;;5054866;28;20358;-70
2023/09/12 11:24:55;;;;;;;13.35;6.88;;;31.90;47.70;;;;;;5054571;28;20060;-69
2023/09/12 11:27:23;;;;;;;12.27;7.30;;;31.70;47.80;;;;;;5054962;28;20116;-69
2023/09/12 11:29:49;;;;;;;12.75;6.57;;;31.80;48.00;;;;;;5054479;28;20123;-69
2023/09/12 11:32:43;;;;;;;11.90;7.25;;;31.80;48.50;;;;;;5054348;28;20389;-69
2023/09/12 11:35:10;;;;;;;15.52;7.75;;;31.90;48.40;;;;;;5051771;28;20045;-69
2023/09/12 11:37:39;;;;;;;15.70;7.30;;;31.90;48.30;;;;;;5054321;28;20029;-70
2023/09/12 11:40:11;;;;;;;14.52;7.70;;;31.90;48.80;;;;;;5054811;28;20115;-69
2023/09/12 11:42:39;;;;;;;15.80;6.78;;;31.90;48.70;;;;;;5054038;28;20029;-68
2023/09/12 11:45:11;;;;;;;17.33;7.43;;;31.90;48.90;;;;;;5054812;28;20025;-69
2023/09/12 11:47:41;;;;;;;14.98;6.53;;;31.90;48.80;;;;;;5054262;28;20021;-70
2023/09/12 11:50:07;;;;;;;12.47;7.13;;;31.80;48.10;;;;;;5054440;28;20025;-69
2023/09/12 11:52:38;;;;;;;11.63;6.45;;;31.80;48.40;;;;;;5054455;28;20023;-69
2023/09/12 11:55:04;;;;;;;10.38;7.10;;;31.60;47.60;;;;;;5054655;28;20076;-69
2023/09/12 11:57:30;;;;;;;16.05;6.78;;;31.60;48.10;;;;;;5051289;28;20107;-68
2023/09/12 11:59:56;;;;;;;7.82;6.45;;;31.60;47.60;;;;;;5053910;28;20164;-68
2023/09/12 12:02:22;;;;;;;26.75;7.55;;;31.70;48.40;;;;;;5054401;28;20074;-68
2023/09/12 12:04:48;;;;;;;9.88;6.28;;;31.70;47.80;;;;;;5053552;28;20107;-68
2023/09/12 12:07:14;;;;;;;10.00;6.43;;;31.70;47.40;;;;;;5054302;28;20499;-69
2023/09/12 12:09:39;;;;;;;12.57;6.25;;;31.80;47.80;;;;;;5053514;28;20033;-69
2023/09/12 12:12:12;;;;;;;14.48;6.32;;;31.90;47.90;;;;;;5052938;28;20031;-69
2023/09/12 12:14:39;;;;;;;11.23;6.00;;;32.00;47.80;;;;;;5053723;28;20055;-70
2023/09/12 12:17:09;;;;;;;12.95;6.40;;;32.10;47.10;;;;;;5053995;28;20029;-68
2023/09/12 12:19:38;;;;;;;11.70;6.32;;;32.10;47.70;;;;;;5054076;28;20137;-68
2023/09/12 12:22:09;;;;;;;8.15;6.00;;;32.00;46.90;;;;;;5053589;28;20039;-68
2023/09/12 12:24:40;;;;;;;8.57;5.60;;;32.00;47.20;;;;;;5053808;28;20021;-68
2023/09/12 12:27:07;;;;;;;15.32;6.45;;;31.90;46.60;;;;;;5053886;28;20385;-69
2023/09/12 12:29:33;;;;;;;11.88;5.57;;;32.00;47.20;;;;;;5053779;28;20065;-68
2023/09/12 12:32:04;;;;;;;17.00;6.25;;;32.00;47.00;;;;;;5053564;28;20040;-69
2023/09/12 12:34:30;;;;;;;14.68;6.07;;;31.80;47.30;;;;;;5053532;28;20466;-68